createdAt,value
2023-03-26T00:00:12.278Z,6.56
2023-03-26T00:01:12.293Z,6.52
2023-03-26T00:02:12.349Z,6.52
2023-03-26T00:03:12.327Z,6.54
2023-03-26T00:04:12.322Z,6.57
2023-03-26T00:05:12.363Z,6.60
2023-03-26T00:06:12.379Z,6.60
2023-03-26T00:07:12.376Z,6.62
2023-03-26T00:08:12.403Z,6.62
2023-03-26T00:09:12.421Z,6.64
2023-03-26T00:10:12.439Z,6.67
2023-03-26T00:11:12.461Z,6.67
2023-03-26T00:12:12.462Z,6.67
2023-03-26T00:13:12.488Z,6.67
2023-03-26T00:14:12.500Z,6.64
2023-03-26T00:15:12.521Z,6.62
2023-03-26T00:16:12.588Z,6.59
2023-03-26T00:17:12.549Z,6.57
2023-03-26T00:18:12.569Z,6.56
2023-03-26T00:19:12.591Z,6.57
2023-03-26T00:20:12.607Z,6.54
2023-03-26T00:21:12.645Z,6.54
2023-03-26T00:22:12.635Z,6.54
2023-03-26T00:23:12.652Z,6.54
2023-03-26T00:24:12.675Z,6.52
2023-03-26T00:25:12.690Z,6.49
2023-03-26T00:26:12.734Z,6.49
2023-03-26T00:27:12.727Z,6.48
2023-03-26T00:28:12.764Z,6.48
2023-03-26T00:29:12.769Z,6.46
2023-03-26T00:30:12.880Z,6.46
2023-03-26T00:31:12.845Z,6.48
2023-03-26T00:32:12.821Z,6.48
2023-03-26T00:33:12.853Z,6.49
2023-03-26T00:34:12.861Z,6.49
2023-03-26T00:35:12.874Z,6.49
2023-03-26T00:36:12.967Z,6.49
2023-03-26T00:37:12.896Z,6.52
2023-03-26T00:38:13.016Z,6.52
2023-03-26T00:39:12.927Z,6.57
2023-03-26T00:40:12.951Z,6.59
2023-03-26T00:41:12.985Z,6.57
2023-03-26T00:42:12.992Z,6.59
2023-03-26T00:43:13.070Z,6.62
2023-03-26T00:44:13.035Z,6.60
2023-03-26T00:45:13.050Z,6.59
2023-03-26T00:46:13.550Z,6.59
2023-03-26T00:47:13.137Z,6.59
2023-03-26T00:48:13.139Z,6.60
2023-03-26T00:49:13.131Z,6.62
2023-03-26T00:50:13.230Z,6.57
2023-03-26T00:51:13.188Z,6.52
2023-03-26T00:52:13.176Z,6.51
2023-03-26T00:53:13.176Z,6.51
2023-03-26T00:54:13.205Z,6.49
2023-03-26T00:55:13.276Z,6.48
2023-03-26T00:56:13.277Z,6.44
2023-03-26T00:57:20.221Z,6.46
2023-03-26T00:58:13.271Z,6.46
2023-03-26T00:59:13.294Z,6.46
2023-03-26T01:00:13.306Z,6.44
2023-03-26T01:01:13.353Z,6.46
2023-03-26T01:02:13.372Z,6.44
2023-03-26T01:03:21.899Z,6.42
2023-03-26T01:04:13.512Z,6.39
2023-03-26T01:05:13.465Z,6.39
2023-03-26T01:06:13.481Z,6.35
2023-03-26T01:07:13.443Z,6.33
2023-03-26T01:08:13.430Z,6.35
2023-03-26T01:09:13.477Z,6.33
2023-03-26T01:10:13.477Z,6.31
2023-03-26T01:11:13.520Z,6.30
2023-03-26T01:12:13.524Z,6.28
2023-03-26T01:13:13.526Z,6.27
2023-03-26T01:14:13.544Z,6.26
2023-03-26T01:15:13.566Z,6.24
2023-03-26T01:16:13.665Z,6.20
2023-03-26T01:17:13.600Z,6.19
2023-03-26T01:18:13.605Z,6.17
2023-03-26T01:19:13.631Z,6.12
2023-03-26T01:20:13.676Z,6.12
2023-03-26T01:21:13.686Z,6.09
2023-03-26T01:22:13.681Z,6.08
2023-03-26T01:23:13.702Z,6.04
2023-03-26T01:24:13.732Z,5.99
2023-03-26T01:25:13.734Z,5.98
2023-03-26T01:26:13.776Z,5.94
2023-03-26T01:27:13.771Z,5.93
2023-03-26T01:28:13.781Z,5.89
2023-03-26T01:29:13.798Z,5.87
2023-03-26T01:30:13.809Z,5.84
2023-03-26T01:31:13.850Z,5.84
2023-03-26T01:32:13.870Z,5.83
2023-03-26T01:33:14.145Z,5.83
2023-03-26T01:34:13.886Z,5.79
2023-03-26T01:35:13.900Z,5.73
2023-03-26T01:36:13.928Z,5.71
2023-03-26T01:37:13.935Z,5.66
2023-03-26T01:38:13.944Z,5.64
2023-03-26T01:39:13.966Z,5.61
2023-03-26T01:40:13.974Z,5.57
2023-03-26T01:41:14.021Z,5.56
2023-03-26T01:42:14.008Z,5.54
2023-03-26T01:43:14.039Z,5.53
2023-03-26T01:44:14.040Z,5.50
2023-03-26T01:45:14.058Z,5.48
2023-03-26T01:46:14.097Z,5.44
2023-03-26T01:47:14.103Z,5.41
2023-03-26T01:48:14.116Z,5.39
2023-03-26T01:49:14.129Z,5.39
2023-03-26T01:50:14.148Z,5.41
2023-03-26T01:51:14.195Z,5.39
2023-03-26T01:52:14.188Z,5.43
2023-03-26T01:53:14.205Z,5.43
2023-03-26T01:54:14.220Z,5.32
2023-03-26T01:55:14.236Z,5.30
2023-03-26T01:56:14.257Z,5.18
2023-03-26T01:57:14.282Z,5.14
2023-03-26T01:58:14.275Z,5.11
2023-03-26T01:59:14.304Z,5.07
2023-03-26T02:00:14.306Z,5.02
2023-03-26T02:01:14.416Z,4.99
2023-03-26T02:02:14.462Z,4.96
2023-03-26T02:03:14.501Z,4.97
2023-03-26T02:04:14.370Z,4.96
2023-03-26T02:05:14.389Z,4.94
2023-03-26T02:06:14.420Z,4.92
2023-03-26T02:07:14.419Z,4.89
2023-03-26T02:08:14.433Z,4.90
2023-03-26T02:09:14.453Z,4.86
2023-03-26T02:10:14.466Z,4.84
2023-03-26T02:11:15.997Z,4.80
2023-03-26T02:12:14.508Z,4.77
2023-03-26T02:13:14.533Z,4.78
2023-03-26T02:14:14.547Z,4.80
2023-03-26T02:15:14.557Z,4.82
2023-03-26T02:16:14.628Z,4.87
2023-03-26T02:17:14.589Z,4.93
2023-03-26T02:18:14.601Z,4.97
2023-03-26T02:19:14.623Z,5.02
2023-03-26T02:20:14.634Z,5.04
2023-03-26T02:21:14.679Z,5.10
2023-03-26T02:22:14.671Z,5.10
2023-03-26T02:23:14.690Z,5.08
2023-03-26T02:24:14.712Z,5.10
2023-03-26T02:25:14.724Z,5.14
2023-03-26T02:26:14.755Z,5.11
2023-03-26T02:27:14.762Z,5.08
2023-03-26T02:28:14.775Z,5.08
2023-03-26T02:29:14.795Z,5.02
2023-03-26T02:30:14.806Z,4.92
2023-03-26T02:31:14.857Z,4.84
2023-03-26T02:32:14.846Z,4.82
2023-03-26T02:33:14.859Z,4.78
2023-03-26T02:34:14.869Z,4.77
2023-03-26T02:35:14.909Z,4.74
2023-03-26T02:36:14.960Z,4.77
2023-03-26T02:37:14.934Z,4.74
2023-03-26T02:38:14.944Z,4.74
2023-03-26T02:39:14.966Z,4.75
2023-03-26T02:40:14.978Z,4.75
2023-03-26T02:41:15.013Z,4.80
2023-03-26T02:42:15.012Z,4.84
2023-03-26T02:43:15.030Z,4.87
2023-03-26T02:44:15.048Z,4.90
2023-03-26T02:45:15.060Z,4.90
2023-03-26T02:46:15.154Z,4.93
2023-03-26T02:47:15.097Z,4.94
2023-03-26T02:48:15.129Z,4.90
2023-03-26T02:49:15.142Z,4.84
2023-03-26T02:50:15.151Z,4.78
2023-03-26T02:51:15.177Z,4.77
2023-03-26T02:52:15.185Z,4.74
2023-03-26T02:53:15.199Z,4.71
2023-03-26T02:54:15.219Z,4.68
2023-03-26T02:55:15.231Z,4.66
2023-03-26T02:56:15.284Z,4.67
2023-03-26T02:57:15.283Z,4.62
2023-03-26T02:58:15.296Z,4.58
2023-03-26T02:59:15.308Z,4.55
2023-03-26T03:00:15.397Z,4.53
2023-03-26T03:01:15.402Z,4.50
2023-03-26T03:02:15.390Z,4.49
2023-03-26T03:03:15.391Z,4.49
2023-03-26T03:04:15.405Z,4.42
2023-03-26T03:05:15.403Z,4.32
2023-03-26T03:06:15.425Z,4.19
2023-03-26T03:07:15.437Z,4.16
2023-03-26T03:08:15.469Z,4.14
2023-03-26T03:09:15.485Z,4.08
2023-03-26T03:10:15.485Z,4.08
2023-03-26T03:11:15.508Z,4.19
2023-03-26T03:12:15.514Z,4.22
2023-03-26T03:13:15.525Z,4.30
2023-03-26T03:14:15.549Z,4.37
2023-03-26T03:15:15.577Z,4.37
2023-03-26T03:16:15.624Z,4.40
2023-03-26T03:17:15.584Z,4.42
2023-03-26T03:18:15.614Z,4.44
2023-03-26T03:19:15.631Z,4.45
2023-03-26T03:20:15.668Z,4.41
2023-03-26T03:21:15.670Z,4.42
2023-03-26T03:22:15.683Z,4.48
2023-03-26T03:23:15.700Z,4.45
2023-03-26T03:24:15.718Z,4.38
2023-03-26T03:25:15.736Z,4.37
2023-03-26T03:26:15.808Z,4.28
2023-03-26T03:27:15.784Z,4.20
2023-03-26T03:28:15.791Z,4.17
2023-03-26T03:29:15.812Z,4.17
2023-03-26T03:30:15.821Z,4.19
2023-03-26T03:31:15.863Z,4.17
2023-03-26T03:32:15.862Z,4.22
2023-03-26T03:33:15.883Z,4.19
2023-03-26T03:34:15.913Z,4.16
2023-03-26T03:35:15.908Z,4.13
2023-03-26T03:36:19.739Z,4.12
2023-03-26T03:37:15.944Z,4.13
2023-03-26T03:38:15.967Z,4.10
2023-03-26T03:39:15.995Z,4.13
2023-03-26T03:40:16.017Z,4.14
2023-03-26T03:41:16.024Z,4.14
2023-03-26T03:42:16.042Z,4.12
2023-03-26T03:43:16.052Z,4.06
2023-03-26T03:44:16.070Z,4.08
2023-03-26T03:45:16.082Z,4.05
2023-03-26T03:46:16.181Z,3.98
2023-03-26T03:47:16.121Z,3.96
2023-03-26T03:48:16.143Z,3.96
2023-03-26T03:49:16.151Z,3.99
2023-03-26T03:50:16.171Z,3.99
2023-03-26T03:51:16.183Z,4.02
2023-03-26T03:52:16.209Z,4.02
2023-03-26T03:53:16.415Z,4.04
2023-03-26T03:54:16.241Z,3.99
2023-03-26T03:55:16.256Z,4.01
2023-03-26T03:56:16.277Z,4.01
2023-03-26T03:57:16.298Z,4.02
2023-03-26T03:58:16.303Z,4.04
2023-03-26T03:59:16.317Z,4.02
2023-03-26T04:00:16.336Z,4.02
2023-03-26T04:01:16.347Z,4.01
2023-03-26T04:02:16.387Z,4.01
2023-03-26T04:03:16.486Z,4.02
2023-03-26T04:04:16.422Z,4.05
2023-03-26T04:05:16.429Z,4.10
2023-03-26T04:06:16.451Z,4.19
2023-03-26T04:07:16.455Z,4.23
2023-03-26T04:08:16.474Z,4.28
2023-03-26T04:09:16.483Z,4.28
2023-03-26T04:10:16.504Z,4.24
2023-03-26T04:11:16.526Z,4.23
2023-03-26T04:12:16.546Z,4.23
2023-03-26T04:13:16.564Z,4.24
2023-03-26T04:14:16.589Z,4.23
2023-03-26T04:15:16.599Z,4.22
2023-03-26T04:16:16.720Z,4.22
2023-03-26T04:17:16.626Z,4.20
2023-03-26T04:18:23.152Z,4.22
2023-03-26T04:19:16.657Z,4.23
2023-03-26T04:20:16.686Z,4.26
2023-03-26T04:21:16.695Z,4.24
2023-03-26T04:22:16.715Z,4.24
2023-03-26T04:23:16.724Z,4.24
2023-03-26T04:24:16.752Z,4.23
2023-03-26T04:25:16.766Z,4.19
2023-03-26T04:26:16.812Z,4.17
2023-03-26T04:27:16.802Z,4.17
2023-03-26T04:28:16.831Z,4.14
2023-03-26T04:29:16.881Z,4.08
2023-03-26T04:30:16.864Z,3.99
2023-03-26T04:31:16.884Z,3.91
2023-03-26T04:32:16.901Z,3.88
2023-03-26T04:33:16.909Z,3.88
2023-03-26T04:34:16.927Z,3.94
2023-03-26T04:35:16.944Z,3.99
2023-03-26T04:36:16.965Z,4.02
2023-03-26T04:37:16.971Z,4.04
2023-03-26T04:38:16.997Z,4.10
2023-03-26T04:39:17.003Z,4.16
2023-03-26T04:40:17.028Z,4.22
2023-03-26T04:41:17.045Z,4.24
2023-03-26T04:42:17.060Z,4.23
2023-03-26T04:43:17.069Z,4.26
2023-03-26T04:44:17.138Z,4.31
2023-03-26T04:45:17.099Z,4.35
2023-03-26T04:46:17.143Z,4.35
2023-03-26T04:47:17.137Z,4.31
2023-03-26T04:48:17.157Z,4.26
2023-03-26T04:49:17.167Z,4.26
2023-03-26T04:50:17.207Z,4.23
2023-03-26T04:51:17.206Z,4.20
2023-03-26T04:52:17.234Z,4.22
2023-03-26T04:53:17.236Z,4.26
2023-03-26T04:54:17.257Z,4.24
2023-03-26T04:55:17.271Z,4.24
2023-03-26T04:56:17.292Z,4.24
2023-03-26T04:57:17.320Z,4.28
2023-03-26T04:58:17.330Z,4.26
2023-03-26T04:59:17.359Z,4.26
2023-03-26T05:00:17.365Z,4.28
2023-03-26T05:01:17.416Z,4.34
2023-03-26T05:02:17.401Z,4.40
2023-03-26T05:03:17.414Z,4.41
2023-03-26T05:04:17.475Z,4.44
2023-03-26T05:05:17.447Z,4.45
2023-03-26T05:06:17.465Z,4.44
2023-03-26T05:07:17.484Z,4.41
2023-03-26T05:08:17.502Z,4.41
2023-03-26T05:09:17.513Z,4.37
2023-03-26T05:10:17.537Z,4.26
2023-03-26T05:11:17.549Z,4.26
2023-03-26T05:12:17.583Z,4.26
2023-03-26T05:13:17.579Z,4.26
2023-03-26T05:14:17.596Z,4.32
2023-03-26T05:15:17.614Z,4.42
2023-03-26T05:16:17.669Z,4.53
2023-03-26T05:17:17.639Z,4.58
2023-03-26T05:18:17.660Z,4.66
2023-03-26T05:19:17.671Z,4.70
2023-03-26T05:20:17.693Z,4.74
2023-03-26T05:21:17.705Z,4.75
2023-03-26T05:22:17.724Z,4.73
2023-03-26T05:23:17.732Z,4.70
2023-03-26T05:24:17.755Z,4.70
2023-03-26T05:25:17.765Z,4.68
2023-03-26T05:26:17.792Z,4.68
2023-03-26T05:27:17.797Z,4.70
2023-03-26T05:28:17.817Z,4.70
2023-03-26T05:29:17.840Z,4.73
2023-03-26T05:30:17.864Z,4.73
2023-03-26T05:31:17.870Z,4.73
2023-03-26T05:32:17.888Z,4.71
2023-03-26T05:33:18.049Z,4.73
2023-03-26T05:34:17.918Z,4.73
2023-03-26T05:35:18.023Z,4.71
2023-03-26T05:36:17.963Z,4.68
2023-03-26T05:37:17.968Z,4.67
2023-03-26T05:38:17.986Z,4.70
2023-03-26T05:39:18.004Z,4.71
2023-03-26T05:40:18.030Z,4.74
2023-03-26T05:41:18.052Z,4.77
2023-03-26T05:42:18.060Z,4.80
2023-03-26T05:43:18.072Z,4.90
2023-03-26T05:44:18.097Z,4.93
2023-03-26T05:45:18.114Z,4.99
2023-03-26T05:46:18.230Z,5.02
2023-03-26T05:47:18.139Z,5.08
2023-03-26T05:48:18.165Z,5.12
2023-03-26T05:49:18.175Z,5.17
2023-03-26T05:50:18.206Z,5.18
2023-03-26T05:51:18.212Z,5.17
2023-03-26T05:52:18.231Z,5.17
2023-03-26T05:53:18.276Z,5.18
2023-03-26T05:54:18.279Z,5.20
2023-03-26T05:55:18.283Z,5.23
2023-03-26T05:56:18.288Z,5.23
2023-03-26T05:57:18.299Z,5.21
2023-03-26T05:58:18.330Z,5.21
2023-03-26T05:59:18.343Z,5.21
2023-03-26T06:00:18.374Z,5.23
2023-03-26T06:01:18.381Z,5.26
2023-03-26T06:02:18.395Z,5.30
2023-03-26T06:03:18.601Z,5.35
2023-03-26T06:04:18.573Z,5.38
2023-03-26T06:05:18.438Z,5.41
2023-03-26T06:06:18.469Z,5.46
2023-03-26T06:07:18.483Z,5.50
2023-03-26T06:08:18.497Z,5.51
2023-03-26T06:09:18.510Z,5.50
2023-03-26T06:10:19.106Z,5.53
2023-03-26T06:11:18.540Z,5.57
2023-03-26T06:12:18.557Z,5.59
2023-03-26T06:13:18.569Z,5.61
2023-03-26T06:14:18.589Z,5.64
2023-03-26T06:15:18.601Z,5.66
2023-03-26T06:16:26.410Z,5.69
2023-03-26T06:17:18.639Z,5.71
2023-03-26T06:18:18.708Z,5.73
2023-03-26T06:19:18.679Z,5.79
2023-03-26T06:20:18.700Z,5.82
2023-03-26T06:21:18.713Z,5.84
2023-03-26T06:22:18.733Z,5.89
2023-03-26T06:23:18.747Z,5.91
2023-03-26T06:24:18.769Z,5.93
2023-03-26T06:25:18.784Z,5.98
2023-03-26T06:26:18.809Z,6.02
2023-03-26T06:27:18.816Z,6.08
2023-03-26T06:28:18.833Z,6.12
2023-03-26T06:29:18.848Z,6.11
2023-03-26T06:30:18.876Z,6.11
2023-03-26T06:31:18.947Z,6.12
2023-03-26T06:32:20.466Z,6.11
2023-03-26T06:33:18.923Z,6.11
2023-03-26T06:34:18.949Z,6.12
2023-03-26T06:35:18.954Z,6.19
2023-03-26T06:36:19.015Z,6.20
2023-03-26T06:37:18.996Z,6.26
2023-03-26T06:38:19.021Z,6.26
2023-03-26T06:39:19.036Z,6.28
2023-03-26T06:40:19.053Z,6.31
2023-03-26T06:41:19.084Z,6.35
2023-03-26T06:42:19.089Z,6.36
2023-03-26T06:43:19.212Z,6.36
2023-03-26T06:44:19.512Z,6.41
2023-03-26T06:45:19.135Z,6.44
2023-03-26T06:46:19.201Z,6.46
2023-03-26T06:47:19.168Z,6.49
2023-03-26T06:48:19.181Z,6.48
2023-03-26T06:49:19.193Z,6.49
2023-03-26T06:50:19.214Z,6.51
2023-03-26T06:51:19.249Z,6.51
2023-03-26T06:52:19.263Z,6.52
2023-03-26T06:53:19.256Z,6.54
2023-03-26T06:54:19.274Z,6.54
2023-03-26T06:55:19.298Z,6.56
2023-03-26T06:56:19.329Z,6.56
2023-03-26T06:57:19.316Z,6.54
2023-03-26T06:58:19.343Z,6.56
2023-03-26T06:59:19.370Z,6.59
2023-03-26T07:00:19.377Z,6.59
2023-03-26T07:01:19.437Z,6.59
2023-03-26T07:02:19.440Z,6.60
2023-03-26T07:03:19.491Z,6.60
2023-03-26T07:04:19.467Z,6.62
2023-03-26T07:05:19.460Z,6.63
2023-03-26T07:06:19.494Z,6.63
2023-03-26T07:07:19.499Z,6.63
2023-03-26T07:08:19.527Z,6.63
2023-03-26T07:09:19.539Z,6.64
2023-03-26T07:10:19.562Z,6.66
2023-03-26T07:11:19.589Z,6.64
2023-03-26T07:12:19.586Z,6.63
2023-03-26T07:13:19.605Z,6.67
2023-03-26T07:14:19.621Z,6.69
2023-03-26T07:15:19.649Z,6.69
2023-03-26T07:16:19.799Z,6.69
2023-03-26T07:17:19.681Z,6.72
2023-03-26T07:18:19.692Z,6.72
2023-03-26T07:19:19.723Z,6.72
2023-03-26T07:20:19.733Z,6.72
2023-03-26T07:21:19.793Z,6.75
2023-03-26T07:22:19.762Z,6.77
2023-03-26T07:23:19.780Z,6.78
2023-03-26T07:24:19.805Z,6.78
2023-03-26T07:25:19.814Z,6.78
2023-03-26T07:26:19.849Z,6.77
2023-03-26T07:27:19.853Z,6.75
2023-03-26T07:28:19.871Z,6.75
2023-03-26T07:29:20.027Z,6.75
2023-03-26T07:30:19.894Z,6.74
2023-03-26T07:31:19.949Z,6.74
2023-03-26T07:32:19.935Z,6.72
2023-03-26T07:33:19.975Z,6.69
2023-03-26T07:34:19.991Z,6.70
2023-03-26T07:35:20.005Z,6.72
2023-03-26T07:36:20.023Z,6.72
2023-03-26T07:37:20.023Z,6.69
2023-03-26T07:38:20.046Z,6.69
2023-03-26T07:39:20.069Z,6.67
2023-03-26T07:40:20.102Z,6.64
2023-03-26T07:41:20.116Z,6.63
2023-03-26T07:42:20.122Z,6.63
2023-03-26T07:43:20.151Z,6.66
2023-03-26T07:44:20.161Z,6.66
2023-03-26T07:45:20.179Z,6.66
2023-03-26T07:46:20.280Z,6.66
2023-03-26T07:47:20.208Z,6.64
2023-03-26T07:48:20.224Z,6.64
2023-03-26T07:49:20.242Z,6.67
2023-03-26T07:50:20.256Z,6.69
2023-03-26T07:51:20.285Z,6.69
2023-03-26T07:52:20.295Z,6.69
2023-03-26T07:53:20.311Z,6.67
2023-03-26T07:54:20.327Z,6.63
2023-03-26T07:55:20.352Z,6.60
2023-03-26T07:56:20.431Z,6.60
2023-03-26T07:57:20.421Z,6.59
2023-03-26T07:58:20.394Z,6.57
2023-03-26T07:59:20.419Z,6.56
2023-03-26T08:00:20.491Z,6.59
2023-03-26T08:01:20.481Z,6.59
2023-03-26T08:02:20.479Z,6.62
2023-03-26T08:03:20.666Z,6.64
2023-03-26T08:04:24.597Z,6.67
2023-03-26T08:05:20.549Z,6.67
2023-03-26T08:06:20.568Z,6.69
2023-03-26T08:07:20.564Z,6.66
2023-03-26T08:08:20.750Z,6.62
2023-03-26T08:09:20.609Z,6.59
2023-03-26T08:10:20.725Z,6.62
2023-03-26T08:11:20.651Z,6.57
2023-03-26T08:12:20.648Z,6.60
2023-03-26T08:13:20.660Z,6.64
2023-03-26T08:14:20.674Z,6.69
2023-03-26T08:15:20.704Z,6.72
2023-03-26T08:16:20.743Z,6.72
2023-03-26T08:17:20.737Z,6.72
2023-03-26T08:18:20.752Z,6.72
2023-03-26T08:19:20.817Z,6.72
2023-03-26T08:20:20.790Z,6.69
2023-03-26T08:21:20.831Z,6.67
2023-03-26T08:22:20.880Z,6.66
2023-03-26T08:23:20.858Z,6.66
2023-03-26T08:24:20.867Z,6.67
2023-03-26T08:25:20.889Z,6.67
2023-03-26T08:26:20.918Z,6.67
2023-03-26T08:27:20.923Z,6.69
2023-03-26T08:28:20.937Z,6.67
2023-03-26T08:29:20.955Z,6.66
2023-03-26T08:30:20.980Z,6.70
2023-03-26T08:31:21.072Z,6.74
2023-03-26T08:32:20.999Z,6.70
2023-03-26T08:33:21.016Z,6.66
2023-03-26T08:34:21.031Z,6.64
2023-03-26T08:35:21.063Z,6.69
2023-03-26T08:36:21.098Z,6.69
2023-03-26T08:37:21.100Z,6.72
2023-03-26T08:38:21.105Z,6.74
2023-03-26T08:39:21.117Z,6.78
2023-03-26T08:40:21.133Z,6.79
2023-03-26T08:41:21.136Z,6.82
2023-03-26T08:42:21.150Z,6.79
2023-03-26T08:43:21.186Z,6.72
2023-03-26T08:44:21.199Z,6.74
2023-03-26T08:45:21.203Z,6.78
2023-03-26T08:46:21.251Z,6.81
2023-03-26T08:47:21.234Z,6.84
2023-03-26T08:48:21.245Z,6.78
2023-03-26T08:49:22.319Z,6.69
2023-03-26T08:50:21.284Z,6.69
2023-03-26T08:51:21.322Z,6.67
2023-03-26T08:52:21.320Z,6.66
2023-03-26T08:53:21.339Z,6.67
2023-03-26T08:54:21.350Z,6.69
2023-03-26T08:55:21.383Z,6.72
2023-03-26T08:56:21.405Z,6.72
2023-03-26T08:57:21.412Z,6.77
2023-03-26T08:58:21.435Z,6.79
2023-03-26T08:59:21.445Z,6.82
2023-03-26T09:00:21.460Z,6.82
2023-03-26T09:01:21.533Z,6.82
2023-03-26T09:02:21.499Z,6.82
2023-03-26T09:03:21.520Z,6.77
2023-03-26T09:04:21.524Z,6.69
2023-03-26T09:05:21.571Z,6.70
2023-03-26T09:06:22.259Z,6.69
2023-03-26T09:07:21.581Z,6.70
2023-03-26T09:08:21.597Z,6.67
2023-03-26T09:09:21.618Z,6.64
2023-03-26T09:10:21.639Z,6.64
2023-03-26T09:11:21.666Z,6.66
2023-03-26T09:12:22.488Z,6.67
2023-03-26T09:13:21.690Z,6.69
2023-03-26T09:14:21.694Z,6.67
2023-03-26T09:15:21.714Z,6.70
2023-03-26T09:16:21.844Z,6.75
2023-03-26T09:17:21.756Z,6.78
2023-03-26T09:18:21.764Z,6.81
2023-03-26T09:19:21.808Z,6.79
2023-03-26T09:20:21.789Z,6.82
2023-03-26T09:21:21.832Z,6.84
2023-03-26T09:22:21.829Z,6.84
2023-03-26T09:23:21.850Z,6.85
2023-03-26T09:24:21.869Z,6.87
2023-03-26T09:25:21.887Z,6.87
2023-03-26T09:26:21.897Z,6.87
2023-03-26T09:27:21.926Z,6.85
2023-03-26T09:28:21.950Z,6.84
2023-03-26T09:29:21.962Z,6.84
2023-03-26T09:30:21.985Z,6.84
2023-03-26T09:31:22.030Z,6.82
2023-03-26T09:32:22.088Z,6.82
2023-03-26T09:33:22.015Z,6.82
2023-03-26T09:34:22.030Z,6.75
2023-03-26T09:35:22.063Z,6.78
2023-03-26T09:36:22.082Z,6.79
2023-03-26T09:37:22.075Z,6.77
2023-03-26T09:38:22.083Z,6.82
2023-03-26T09:39:22.103Z,6.85
2023-03-26T09:40:22.122Z,6.87
2023-03-26T09:41:22.161Z,6.95
2023-03-26T09:42:22.145Z,7.05
2023-03-26T09:43:22.163Z,7.13
2023-03-26T09:44:22.178Z,7.14
2023-03-26T09:45:22.197Z,7.13
2023-03-26T09:46:22.239Z,7.11
2023-03-26T09:47:22.373Z,7.07
2023-03-26T09:48:22.242Z,7.00
2023-03-26T09:49:22.260Z,6.99
2023-03-26T09:50:22.279Z,6.97
2023-03-26T09:51:22.316Z,6.97
2023-03-26T09:52:22.308Z,6.97
2023-03-26T09:53:22.341Z,6.99
2023-03-26T09:54:22.344Z,6.99
2023-03-26T09:55:22.367Z,6.99
2023-03-26T09:56:22.401Z,6.93
2023-03-26T09:57:22.523Z,6.95
2023-03-26T09:58:22.413Z,6.99
2023-03-26T09:59:22.424Z,7.00
2023-03-26T10:00:22.433Z,7.06
2023-03-26T10:01:22.632Z,7.14
2023-03-26T10:02:22.569Z,7.23
2023-03-26T10:03:22.539Z,7.28
2023-03-26T10:04:22.569Z,7.33
2023-03-26T10:05:22.533Z,7.42
2023-03-26T10:06:22.558Z,7.39
2023-03-26T10:07:22.563Z,7.40
2023-03-26T10:08:22.584Z,7.40
2023-03-26T10:09:22.585Z,7.36
2023-03-26T10:10:22.607Z,7.39
2023-03-26T10:11:22.654Z,7.42
2023-03-26T10:12:22.628Z,7.45
2023-03-26T10:13:22.647Z,7.47
2023-03-26T10:14:22.661Z,7.47
2023-03-26T10:15:24.996Z,7.40
2023-03-26T10:16:22.759Z,7.40
2023-03-26T10:17:22.738Z,7.43
2023-03-26T10:18:27.285Z,7.43
2023-03-26T10:20:36.816Z,7.40
2023-03-26T10:21:37.873Z,7.45
2023-03-26T10:22:37.841Z,7.45
2023-03-26T10:23:37.862Z,7.48
2023-03-26T10:24:37.869Z,7.53
2023-03-26T10:25:37.896Z,7.54
2023-03-26T10:26:37.935Z,7.58
2023-03-26T10:27:37.919Z,7.66
2023-03-26T10:28:37.936Z,7.67
2023-03-26T10:29:37.959Z,7.66
2023-03-26T10:30:38.045Z,7.66
2023-03-26T10:31:38.027Z,7.66
2023-03-26T10:32:38.128Z,7.66
2023-03-26T10:33:38.037Z,7.69
2023-03-26T10:34:38.033Z,7.69
2023-03-26T10:35:38.076Z,7.73
2023-03-26T10:36:38.089Z,7.77
2023-03-26T10:37:38.088Z,7.80
2023-03-26T10:38:38.104Z,7.85
2023-03-26T10:39:39.464Z,7.87
2023-03-26T10:40:38.130Z,7.82
2023-03-26T10:41:38.152Z,7.85
2023-03-26T10:42:38.160Z,7.85
2023-03-26T10:43:38.181Z,7.85
2023-03-26T10:44:38.194Z,7.91
2023-03-26T10:45:38.217Z,7.98
2023-03-26T10:46:38.360Z,7.97
2023-03-26T10:47:38.283Z,7.98
2023-03-26T10:48:38.255Z,8.03
2023-03-26T10:49:38.274Z,8.06
2023-03-26T10:50:38.288Z,8.15
2023-03-26T10:51:38.331Z,8.24
2023-03-26T10:52:38.316Z,8.31
2023-03-26T10:53:38.337Z,8.49
2023-03-26T10:54:38.353Z,8.55
2023-03-26T10:55:38.376Z,8.52
2023-03-26T10:56:38.502Z,8.44
2023-03-26T10:57:38.419Z,8.46
2023-03-26T10:58:48.927Z,8.46
2023-03-26T10:59:38.443Z,8.44
2023-03-26T11:00:38.449Z,8.41
2023-03-26T11:01:38.533Z,8.41
2023-03-26T11:02:38.496Z,8.41
2023-03-26T11:03:38.505Z,8.36
2023-03-26T11:04:38.514Z,8.31
2023-03-26T11:05:38.572Z,8.34
2023-03-26T11:06:38.559Z,8.51
2023-03-26T11:07:38.579Z,8.63
2023-03-26T11:08:38.597Z,8.71
2023-03-26T11:09:38.630Z,8.78
2023-03-26T11:10:38.632Z,8.88
2023-03-26T11:11:38.657Z,8.88
2023-03-26T11:12:38.650Z,8.89
2023-03-26T11:13:38.669Z,8.94
2023-03-26T11:14:38.712Z,8.91
2023-03-26T11:15:38.773Z,8.91
2023-03-26T11:16:38.738Z,8.85
2023-03-26T11:17:40.259Z,8.82
2023-03-26T11:18:38.750Z,8.81
2023-03-26T11:19:38.771Z,8.79
2023-03-26T11:20:38.792Z,8.69
2023-03-26T11:21:38.819Z,8.64
2023-03-26T11:22:38.822Z,8.69
2023-03-26T11:23:38.844Z,8.71
2023-03-26T11:24:38.860Z,8.71
2023-03-26T11:25:38.873Z,8.70
2023-03-26T11:26:39.529Z,8.74
2023-03-26T11:27:38.910Z,8.79
2023-03-26T11:28:38.912Z,8.91
2023-03-26T11:29:38.941Z,9.03
2023-03-26T11:30:38.954Z,9.13
2023-03-26T11:31:39.023Z,9.26
2023-03-26T11:32:39.031Z,9.31
2023-03-26T11:33:46.109Z,9.40
2023-03-26T11:34:39.027Z,9.39
2023-03-26T11:35:41.116Z,9.39
2023-03-26T11:36:39.075Z,9.28
2023-03-26T11:37:39.129Z,9.32
2023-03-26T11:38:39.105Z,9.39
2023-03-26T11:39:39.152Z,9.46
2023-03-26T11:40:39.136Z,9.46
2023-03-26T11:41:39.149Z,9.54
2023-03-26T11:42:39.163Z,9.61
2023-03-26T11:43:39.185Z,9.66
2023-03-26T11:44:39.194Z,9.73
2023-03-26T11:45:39.234Z,9.77
2023-03-26T11:46:39.257Z,9.84
2023-03-26T11:47:39.302Z,9.87
2023-03-26T11:48:39.269Z,9.82
2023-03-26T11:49:39.287Z,9.89
2023-03-26T11:50:39.306Z,9.98
2023-03-26T11:51:39.333Z,10.05
2023-03-26T11:52:39.339Z,10.22
2023-03-26T11:53:39.368Z,10.31
2023-03-26T11:54:39.364Z,10.48
2023-03-26T11:55:39.402Z,10.57
2023-03-26T11:56:39.473Z,10.69
2023-03-26T11:57:39.467Z,10.76
2023-03-26T11:58:39.412Z,10.90
2023-03-26T11:59:53.191Z,11.15
2023-03-26T12:00:39.451Z,11.30
2023-03-26T12:01:39.535Z,11.50
2023-03-26T12:02:39.557Z,11.65
2023-03-26T12:03:39.498Z,11.72
2023-03-26T12:04:39.572Z,11.80
2023-03-26T12:05:39.539Z,11.87
2023-03-26T12:06:39.549Z,11.78
2023-03-26T12:07:39.557Z,11.52
2023-03-26T12:08:39.623Z,11.23
2023-03-26T12:09:39.588Z,10.63
2023-03-26T12:10:39.606Z,9.54
2023-03-26T12:11:39.620Z,8.76
2023-03-26T12:12:39.631Z,8.20
2023-03-26T12:13:39.654Z,7.69
2023-03-26T12:14:39.663Z,7.35
2023-03-26T12:15:39.685Z,7.14
2023-03-26T12:16:39.716Z,6.96
2023-03-26T12:17:39.729Z,6.84
2023-03-26T12:18:39.752Z,6.84
2023-03-26T12:19:39.755Z,6.78
2023-03-26T12:20:39.776Z,6.78
2023-03-26T12:21:39.807Z,6.74
2023-03-26T12:22:41.764Z,6.74
2023-03-26T12:23:39.835Z,6.67
2023-03-26T12:24:39.846Z,6.69
2023-03-26T12:25:39.867Z,6.70
2023-03-26T12:26:39.896Z,6.66
2023-03-26T12:27:39.904Z,6.63
2023-03-26T12:28:41.421Z,6.63
2023-03-26T12:29:39.938Z,6.63
2023-03-26T12:30:39.975Z,6.54
2023-03-26T12:31:40.071Z,6.54
2023-03-26T12:32:46.400Z,6.57
2023-03-26T12:33:40.012Z,6.60
2023-03-26T12:34:40.025Z,6.63
2023-03-26T12:35:40.077Z,6.60
2023-03-26T12:36:40.085Z,6.57
2023-03-26T12:37:40.078Z,6.60
2023-03-26T12:38:40.090Z,6.62
2023-03-26T12:40:10.740Z,6.64
2023-03-26T12:40:40.125Z,6.64
2023-03-26T12:44:51.172Z,6.75
2023-03-26T12:45:03.478Z,6.87
2023-03-26T12:45:08.807Z,6.87
2023-03-26T12:47:55.464Z,6.87
2023-03-26T12:48:07.327Z,6.79
2023-03-26T12:48:12.878Z,6.84
2023-03-26T12:49:12.916Z,6.95
2023-03-26T12:50:12.791Z,7.02
2023-03-26T12:51:12.832Z,7.11
2023-03-26T12:52:12.836Z,7.20
2023-03-26T12:53:12.836Z,7.33
2023-03-26T12:54:12.858Z,7.43
2023-03-26T12:55:12.875Z,7.54
2023-03-26T12:56:12.890Z,7.61
2023-03-26T12:57:13.469Z,7.72
2023-03-26T12:58:14.039Z,7.76
2023-03-26T12:59:12.943Z,7.73
2023-03-26T13:00:12.961Z,7.77
2023-03-26T13:01:13.006Z,7.75
2023-03-26T13:02:13.030Z,7.72
2023-03-26T13:03:13.085Z,7.66
2023-03-26T13:04:13.017Z,7.53
2023-03-26T13:05:13.029Z,7.43
2023-03-26T13:06:13.050Z,7.39
2023-03-26T13:07:13.062Z,7.35
2023-03-26T13:08:13.082Z,7.35
2023-03-26T13:09:13.094Z,7.32
2023-03-26T13:10:13.146Z,7.32
2023-03-26T13:11:13.151Z,7.29
2023-03-26T13:12:13.169Z,7.25
2023-03-26T13:13:13.157Z,7.24
2023-03-26T13:14:13.171Z,7.21
2023-03-26T13:15:13.191Z,7.15
2023-03-26T13:16:13.225Z,7.11
2023-03-26T13:17:13.297Z,7.11
2023-03-26T13:18:13.238Z,7.13
2023-03-26T13:19:13.254Z,7.15
2023-03-26T13:20:13.293Z,7.15